createdAt,value
2022-10-31T00:01:31.000Z,99084.69
2022-10-31T00:03:57.667Z,99077.91
2022-10-31T00:06:24.917Z,99089.31
2022-10-31T00:08:57.391Z,99085.06
2022-10-31T00:11:24.616Z,99087.81
2022-10-31T00:13:51.434Z,99080.16
2022-10-31T00:16:20.516Z,99089.53
2022-10-31T00:18:54.400Z,99085.88
2022-10-31T00:21:21.565Z,99083.75
2022-10-31T00:23:48.655Z,99073.84
2022-10-31T00:26:15.762Z,99072.50
2022-10-31T00:28:42.715Z,99086.31
2022-10-31T00:31:11.951Z,99084.66
2022-10-31T00:33:40.075Z,99083.91
2022-10-31T00:36:08.585Z,99070.19
2022-10-31T00:38:35.164Z,99077.91
2022-10-31T00:41:01.838Z,99068.63
2022-10-31T00:43:28.446Z,99073.69
2022-10-31T00:45:55.164Z,99081.25
2022-10-31T00:48:24.785Z,99078.75
2022-10-31T00:50:53.023Z,99076.59
2022-10-31T00:53:19.593Z,99080.34
2022-10-31T00:55:46.438Z,99074.72
2022-10-31T01:00:48.045Z,99074.97
2022-10-31T01:03:17.627Z,99070.03
2022-10-31T01:05:44.205Z,99071.03
2022-10-31T01:08:10.829Z,99080.34
2022-10-31T01:10:37.455Z,99071.72
2022-10-31T01:13:04.091Z,99059.09
2022-10-31T01:15:30.680Z,99074.06
2022-10-31T01:17:57.750Z,99071.31
2022-10-31T01:20:24.881Z,99073.78
2022-10-31T01:22:51.491Z,99076.28
2022-10-31T01:25:18.204Z,99077.94
2022-10-31T01:27:44.839Z,99074.63
2022-10-31T01:30:11.842Z,99075.81
2022-10-31T01:32:38.575Z,99059.25
2022-10-31T01:35:05.265Z,99064.66
2022-10-31T01:37:32.313Z,99068.16
2022-10-31T01:39:59.214Z,99069.97
2022-10-31T01:42:25.941Z,99064.25
2022-10-31T01:44:54.567Z,99056.69
2022-10-31T01:47:50.554Z,99058.34
2022-10-31T01:50:26.821Z,99058.75
2022-10-31T01:52:54.281Z,99053.53
2022-10-31T01:55:31.599Z,99053.94
2022-10-31T01:58:08.331Z,99049.53
2022-10-31T02:00:35.221Z,99054.69
2022-10-31T02:03:02.502Z,99055.59
2022-10-31T02:05:31.270Z,99055.88
2022-10-31T02:08:04.778Z,99048.22
2022-10-31T02:10:33.696Z,99052.38
2022-10-31T02:13:04.359Z,99054.00
2022-10-31T02:15:31.607Z,99053.28
2022-10-31T02:17:59.083Z,99051.28
2022-10-31T02:20:33.427Z,99048.03
2022-10-31T02:23:18.263Z,99046.47
2022-10-31T02:26:08.438Z,99046.56
2022-10-31T02:29:01.995Z,99038.81
2022-10-31T02:31:34.715Z,99037.06
2022-10-31T02:34:29.413Z,99040.66
2022-10-31T02:37:08.545Z,99044.59
2022-10-31T02:39:47.939Z,99038.53
2022-10-31T02:42:30.937Z,99039.63
2022-10-31T02:45:21.437Z,99039.63
2022-10-31T02:47:51.251Z,99036.31
2022-10-31T02:50:28.306Z,99036.41
2022-10-31T02:52:54.976Z,99035.06
2022-10-31T02:55:23.741Z,99037.72
2022-10-31T02:57:54.438Z,99031.09
2022-10-31T03:00:22.994Z,99034.38
2022-10-31T03:02:55.650Z,99038.13
2022-10-31T03:05:30.062Z,99032.97
2022-10-31T03:08:25.739Z,99037.22
2022-10-31T03:10:52.682Z,99030.72
2022-10-31T03:13:41.116Z,99031.91
2022-10-31T03:16:30.136Z,99032.16
2022-10-31T03:18:56.799Z,99033.91
2022-10-31T03:21:30.347Z,99034.00
2022-10-31T03:24:00.834Z,99034.56
2022-10-31T03:26:27.698Z,99033.84
2022-10-31T03:28:58.203Z,99043.38
2022-10-31T03:31:31.039Z,99044.63
2022-10-31T03:34:00.826Z,99040.97
2022-10-31T03:36:32.667Z,99037.88
2022-10-31T03:39:02.804Z,99039.97
2022-10-31T03:41:36.290Z,99040.88
2022-10-31T03:44:08.760Z,99043.72
2022-10-31T03:46:38.087Z,99044.28
2022-10-31T03:49:05.434Z,99040.97
2022-10-31T03:51:48.055Z,99036.81
2022-10-31T03:54:41.478Z,99045.88
2022-10-31T03:57:19.733Z,99040.06
2022-10-31T03:59:52.340Z,99044.38
2022-10-31T04:02:23.896Z,99035.91
2022-10-31T04:04:52.362Z,99029.50
2022-10-31T04:07:21.757Z,99030.16
2022-10-31T04:09:53.179Z,99034.50
2022-10-31T04:12:23.395Z,99036.81
2022-10-31T04:15:27.187Z,99027.03
2022-10-31T04:17:59.353Z,99028.00
2022-10-31T04:20:35.444Z,99031.50
2022-10-31T04:23:02.592Z,99030.75
2022-10-31T04:25:29.207Z,99033.34
2022-10-31T04:27:56.198Z,99034.31
2022-10-31T04:30:23.842Z,99028.56
2022-10-31T04:32:50.485Z,99026.19
2022-10-31T04:35:18.271Z,99025.44
2022-10-31T04:37:46.303Z,99019.34
2022-10-31T04:40:13.878Z,99024.84
2022-10-31T04:43:12.743Z,99012.41
2022-10-31T04:45:40.040Z,99018.38
2022-10-31T04:48:06.863Z,99023.00
2022-10-31T04:50:35.382Z,99016.69
2022-10-31T04:53:02.106Z,99019.44
2022-10-31T04:55:36.455Z,99020.69
2022-10-31T04:58:18.035Z,99016.69
2022-10-31T05:00:44.917Z,99020.03
2022-10-31T05:03:12.360Z,99018.28
2022-10-31T05:05:40.816Z,99019.03
2022-10-31T05:08:07.486Z,99018.88
2022-10-31T05:10:34.115Z,99018.19
2022-10-31T05:13:03.911Z,99017.53
2022-10-31T05:15:50.531Z,99018.44
2022-10-31T05:18:35.763Z,99020.19
2022-10-31T05:21:21.179Z,99017.38
2022-10-31T05:23:51.890Z,99020.78
2022-10-31T05:26:19.867Z,99019.22
2022-10-31T05:28:47.744Z,99014.19
2022-10-31T05:31:14.455Z,99019.22
2022-10-31T05:33:42.314Z,99020.94
2022-10-31T05:36:29.173Z,99017.72
2022-10-31T05:39:00.850Z,99010.72
2022-10-31T05:41:42.075Z,99017.72
2022-10-31T05:44:34.752Z,99011.16
2022-10-31T05:47:33.768Z,99021.53
2022-10-31T05:50:00.393Z,99015.78
2022-10-31T05:52:42.056Z,99012.53
2022-10-31T05:55:32.357Z,99012.31
2022-10-31T05:58:10.822Z,99010.72
2022-10-31T06:00:39.564Z,99027.31
2022-10-31T06:03:10.510Z,99016.78
2022-10-31T06:05:50.827Z,99017.59
2022-10-31T06:08:22.214Z,99022.16
2022-10-31T06:10:49.840Z,99025.41
2022-10-31T06:13:22.658Z,99031.31
2022-10-31T06:16:03.478Z,99024.66
2022-10-31T06:18:38.789Z,99037.53
2022-10-31T06:21:05.649Z,99034.13
2022-10-31T06:23:32.227Z,99029.81
2022-10-31T06:26:18.923Z,99035.94
2022-10-31T06:28:45.608Z,99034.97
2022-10-31T06:31:32.493Z,99041.69
2022-10-31T06:33:59.272Z,99043.50
2022-10-31T06:38:58.432Z,99040.13
2022-10-31T06:41:25.129Z,99051.19
2022-10-31T06:43:53.276Z,99055.13
2022-10-31T06:46:40.128Z,99053.25
2022-10-31T06:49:29.902Z,99058.31
2022-10-31T06:52:00.799Z,99059.38
2022-10-31T06:54:27.486Z,99057.50
2022-10-31T06:56:54.785Z,99066.78
2022-10-31T06:59:22.067Z,99067.88
2022-10-31T07:02:11.551Z,99066.03
2022-10-31T07:04:40.024Z,99067.88
2022-10-31T07:07:07.532Z,99067.81
2022-10-31T07:09:35.767Z,99081.50
2022-10-31T07:12:04.591Z,99068.53
2022-10-31T07:14:34.819Z,99071.13
2022-10-31T07:17:02.229Z,99076.13
2022-10-31T07:19:35.038Z,99074.81
2022-10-31T07:22:02.506Z,99076.38
2022-10-31T07:24:31.350Z,99077.13
2022-10-31T07:27:42.716Z,99076.94
2022-10-31T07:30:14.205Z,99081.44
2022-10-31T07:32:49.075Z,99077.13
2022-10-31T07:35:20.604Z,99080.22
2022-10-31T07:37:50.661Z,99089.44
2022-10-31T07:40:18.302Z,99092.75
2022-10-31T07:42:47.352Z,99078.28
2022-10-31T07:45:33.963Z,99086.44
2022-10-31T07:48:32.882Z,99092.34
2022-10-31T07:51:17.808Z,99089.09
2022-10-31T07:54:03.111Z,99090.69
2022-10-31T07:56:32.042Z,99095.75
2022-10-31T07:58:58.844Z,99098.75
2022-10-31T08:01:25.485Z,99097.50
2022-10-31T08:04:24.436Z,99093.00
2022-10-31T08:07:11.397Z,99092.91
2022-10-31T08:09:42.811Z,99096.06
2022-10-31T08:12:18.936Z,99099.13
2022-10-31T08:14:45.582Z,99101.53
2022-10-31T08:17:12.887Z,99096.09
2022-10-31T08:19:46.669Z,99094.28
2022-10-31T08:22:16.183Z,99100.94
2022-10-31T08:24:42.754Z,99088.13
2022-10-31T08:27:09.583Z,99088.94
2022-10-31T08:29:37.976Z,99093.09
2022-10-31T08:32:05.153Z,99092.91
2022-10-31T08:34:50.198Z,99092.50
2022-10-31T08:37:35.493Z,99092.84
2022-10-31T08:40:04.221Z,99090.84
2022-10-31T08:42:34.361Z,99088.00
2022-10-31T08:45:01.273Z,99087.75
2022-10-31T08:47:28.835Z,99089.88
2022-10-31T08:49:56.550Z,99093.75
2022-10-31T08:52:44.296Z,99093.47
2022-10-31T08:55:12.420Z,99092.75
2022-10-31T08:58:02.963Z,99086.28
2022-10-31T09:00:39.107Z,99089.78
2022-10-31T09:03:19.748Z,99090.34
2022-10-31T09:05:46.862Z,99096.25
2022-10-31T09:08:16.580Z,99091.66
2022-10-31T09:10:46.319Z,99093.22
2022-10-31T09:13:21.534Z,99094.34
2022-10-31T09:16:07.069Z,99090.38
2022-10-31T09:18:35.207Z,99085.75
2022-10-31T09:21:02.148Z,99092.03
2022-10-31T09:23:31.006Z,99084.44
2022-10-31T09:26:01.381Z,99086.09
2022-10-31T09:28:32.623Z,99082.41
2022-10-31T09:31:05.672Z,99081.09
2022-10-31T09:34:01.587Z,99077.59
2022-10-31T09:36:40.537Z,99077.50
2022-10-31T09:39:11.570Z,99077.94
2022-10-31T09:41:56.255Z,99081.38
2022-10-31T09:45:03.201Z,99083.03
2022-10-31T09:48:04.900Z,99082.66
2022-10-31T09:50:49.818Z,99070.06
2022-10-31T09:53:55.067Z,99085.81
2022-10-31T09:56:26.387Z,99071.06
2022-10-31T09:59:01.825Z,99073.53
2022-10-31T10:01:52.262Z,99067.47
2022-10-31T10:04:38.454Z,99061.81
2022-10-31T10:07:29.114Z,99062.44
2022-10-31T10:10:27.222Z,99062.13
2022-10-31T10:13:30.265Z,99059.25
2022-10-31T10:16:15.393Z,99053.09
2022-10-31T10:18:51.829Z,99059.31
2022-10-31T10:21:24.775Z,99039.94
2022-10-31T10:24:00.556Z,99046.19
2022-10-31T10:26:36.076Z,99043.69
2022-10-31T10:29:07.190Z,99042.25
2022-10-31T10:31:41.208Z,99029.63
2022-10-31T10:34:30.983Z,99035.38
2022-10-31T10:37:04.053Z,99040.75
2022-10-31T10:39:38.159Z,99036.81
2022-10-31T10:42:34.419Z,99031.84
2022-10-31T10:45:29.287Z,99028.41
2022-10-31T10:48:09.822Z,99030.53
2022-10-31T10:50:43.093Z,99035.28
2022-10-31T10:53:32.909Z,99035.28
2022-10-31T10:56:16.816Z,99033.94
2022-10-31T10:58:44.050Z,99037.94
2022-10-31T11:03:43.106Z,99039.63
2022-10-31T11:06:25.805Z,99033.94
2022-10-31T11:08:53.426Z,99035.00
2022-10-31T11:11:31.770Z,99026.00
2022-10-31T11:14:04.508Z,99033.38
2022-10-31T11:16:40.690Z,99032.09
2022-10-31T11:19:20.148Z,99032.69
2022-10-31T11:21:52.796Z,99032.88
2022-10-31T11:24:28.919Z,99021.78
2022-10-31T11:27:17.996Z,99017.75
2022-10-31T11:29:44.789Z,99021.44
2022-10-31T11:32:20.709Z,99022.88
2022-10-31T11:34:51.492Z,99026.44
2022-10-31T11:37:22.318Z,99019.97
2022-10-31T11:39:58.263Z,99019.38
2022-10-31T11:42:31.376Z,99006.50
2022-10-31T11:44:58.167Z,99010.16
2022-10-31T11:47:31.072Z,99010.56
2022-10-31T11:49:58.803Z,99009.59
2022-10-31T11:52:31.612Z,99007.47
2022-10-31T11:55:13.254Z,98998.66
2022-10-31T11:57:48.893Z,99002.22
2022-10-31T12:00:38.257Z,98994.22
2022-10-31T12:03:34.283Z,98994.09
2022-10-31T12:06:06.050Z,98985.97
2022-10-31T12:08:36.254Z,98987.41
2022-10-31T12:11:12.651Z,98989.75
2022-10-31T12:14:04.332Z,98975.59
2022-10-31T12:17:11.660Z,98968.66
2022-10-31T12:20:00.305Z,98963.34
2022-10-31T12:22:57.192Z,98954.38
2022-10-31T12:25:30.062Z,98944.91
2022-10-31T12:28:18.374Z,98940.81
2022-10-31T12:31:10.777Z,98940.81
2022-10-31T12:33:51.409Z,98938.53
2022-10-31T12:36:32.972Z,98929.94
2022-10-31T12:39:14.754Z,98930.28
2022-10-31T12:41:59.845Z,98930.59
2022-10-31T12:44:29.677Z,98912.53
2022-10-31T12:47:33.451Z,98891.47
2022-10-31T12:50:41.568Z,98902.22
2022-10-31T12:53:25.305Z,98904.53
2022-10-31T12:56:25.708Z,98897.94
2022-10-31T12:59:01.120Z,98888.50
2022-10-31T13:01:34.832Z,98894.78
2022-10-31T13:04:09.645Z,98890.38
2022-10-31T13:06:44.862Z,98893.03
2022-10-31T13:09:14.724Z,98894.63
2022-10-31T13:12:16.548Z,98891.09
2022-10-31T13:14:48.766Z,98881.44
2022-10-31T13:17:24.955Z,98877.53
2022-10-31T13:19:56.412Z,98875.75
2022-10-31T13:22:28.905Z,98877.22
2022-10-31T13:25:14.696Z,98883.63
2022-10-31T13:28:07.642Z,98875.81
2022-10-31T13:30:39.600Z,98878.22
2022-10-31T13:33:36.514Z,98874.94
2022-10-31T13:36:30.844Z,98865.28
2022-10-31T13:39:07.244Z,98868.72
2022-10-31T13:41:50.878Z,98861.97
2022-10-31T13:44:31.340Z,98852.78
2022-10-31T13:47:01.172Z,98850.06
2022-10-31T13:49:30.717Z,98861.75
2022-10-31T13:52:12.408Z,98858.28
2022-10-31T13:54:44.207Z,98853.09
2022-10-31T13:57:20.557Z,98853.63
2022-10-31T13:59:54.716Z,98855.38
2022-10-31T14:02:34.360Z,98851.06
2022-10-31T14:05:05.037Z,98859.47
2022-10-31T14:07:33.393Z,98847.41
2022-10-31T14:10:20.288Z,98852.59
2022-10-31T14:12:49.119Z,98857.38
2022-10-31T14:15:17.773Z,98849.94
2022-10-31T14:17:55.859Z,98849.16
2022-10-31T14:20:45.013Z,98857.03
2022-10-31T14:23:36.558Z,98847.38
2022-10-31T14:26:26.614Z,98843.84
2022-10-31T14:28:57.647Z,98837.88
2022-10-31T14:31:38.901Z,98837.78
2022-10-31T14:34:33.416Z,98833.56
2022-10-31T14:37:08.949Z,98830.19
2022-10-31T14:39:58.665Z,98835.28
2022-10-31T14:43:02.928Z,98827.38
2022-10-31T14:45:32.960Z,98838.50
2022-10-31T14:48:34.075Z,98821.63
2022-10-31T14:51:30.544Z,98822.34
2022-10-31T14:53:58.465Z,98827.41
2022-10-31T14:56:30.602Z,98824.75
2022-10-31T14:59:01.016Z,98825.03
2022-10-31T15:01:31.530Z,98817.19
2022-10-31T15:04:24.899Z,98820.19
2022-10-31T15:07:24.832Z,98813.63
2022-10-31T15:09:58.495Z,98811.63
2022-10-31T15:12:31.308Z,98808.03
2022-10-31T15:14:59.686Z,98820.06
2022-10-31T15:17:27.685Z,98815.75
2022-10-31T15:19:54.949Z,98819.97
2022-10-31T15:22:25.033Z,98824.03
2022-10-31T15:24:57.428Z,98828.59
2022-10-31T15:27:25.671Z,98830.16
2022-10-31T15:29:54.842Z,98827.75
2022-10-31T15:32:26.704Z,98831.63
2022-10-31T15:34:54.876Z,98831.09
2022-10-31T15:37:25.776Z,98834.78
2022-10-31T15:39:52.703Z,98830.72
2022-10-31T15:42:21.116Z,98828.03
2022-10-31T15:44:57.806Z,98847.19
2022-10-31T15:47:25.446Z,98849.31
2022-10-31T15:49:57.670Z,98847.38
2022-10-31T15:52:48.179Z,98859.00
2022-10-31T15:55:16.745Z,98853.91
2022-10-31T15:57:48.432Z,98851.56
2022-10-31T16:00:38.411Z,98857.09
2022-10-31T16:03:20.166Z,98860.63
2022-10-31T16:05:48.018Z,98861.25
2022-10-31T16:08:29.842Z,98862.03
2022-10-31T16:11:01.628Z,98857.91
2022-10-31T16:13:31.809Z,98863.34
2022-10-31T16:16:32.970Z,98862.84
2022-10-31T16:18:54.190Z,98874.88
2022-10-31T16:21:30.906Z,98877.94
2022-10-31T16:24:28.923Z,98881.56
2022-10-31T16:27:03.969Z,98884.16
2022-10-31T16:29:48.019Z,98889.47
2022-10-31T16:32:37.623Z,98895.59
2022-10-31T16:35:10.312Z,98910.88
2022-10-31T16:37:41.197Z,98900.34
2022-10-31T16:40:11.288Z,98901.09
2022-10-31T16:42:37.977Z,98907.28
2022-10-31T16:45:06.864Z,98910.09
2022-10-31T16:47:33.500Z,98905.72
2022-10-31T16:50:02.996Z,98912.00
2022-10-31T16:52:38.245Z,98914.47
2022-10-31T16:55:15.973Z,98920.94
2022-10-31T16:57:46.383Z,98921.16
2022-10-31T17:00:19.625Z,98925.72
2022-10-31T17:02:48.200Z,98927.91
2022-10-31T17:05:16.857Z,98922.63
2022-10-31T17:07:43.744Z,98927.00
2022-10-31T17:10:12.163Z,98936.16
2022-10-31T17:12:41.595Z,98934.25
2022-10-31T17:15:16.791Z,98939.56
2022-10-31T17:17:43.472Z,98942.59
2022-10-31T17:20:26.019Z,98932.69
2022-10-31T17:22:53.502Z,98943.53
2022-10-31T17:25:23.151Z,98930.16
2022-10-31T17:27:50.532Z,98946.34
2022-10-31T17:30:18.770Z,98943.75
2022-10-31T17:32:46.924Z,98942.94
2022-10-31T17:35:14.952Z,98947.94
2022-10-31T17:37:44.694Z,98948.84
2022-10-31T17:40:13.567Z,98960.03
2022-10-31T17:42:40.188Z,98956.00
2022-10-31T17:45:08.027Z,98948.84
2022-10-31T17:47:35.503Z,98953.97
2022-10-31T17:50:02.251Z,98950.66
2022-10-31T17:52:28.771Z,98962.06
2022-10-31T17:54:55.381Z,98961.53
2022-10-31T17:57:22.020Z,98958.34
2022-10-31T17:59:48.647Z,98960.94
2022-10-31T18:02:15.373Z,98958.97
2022-10-31T18:04:42.235Z,98957.31
2022-10-31T18:07:08.773Z,98957.41
2022-10-31T18:09:35.713Z,98959.59
2022-10-31T18:12:02.351Z,98960.03
2022-10-31T18:14:29.540Z,98963.84
2022-10-31T18:16:56.114Z,98970.81
2022-10-31T18:19:22.868Z,98964.59
2022-10-31T18:21:49.395Z,98970.47
2022-10-31T18:24:16.008Z,98969.25
2022-10-31T18:26:42.921Z,98964.28
2022-10-31T18:29:11.589Z,98973.06
2022-10-31T18:31:38.289Z,98972.31
2022-10-31T18:34:05.024Z,98980.50
2022-10-31T18:36:31.755Z,98984.09
2022-10-31T18:38:58.479Z,98980.00
2022-10-31T18:41:25.447Z,98982.03
2022-10-31T18:43:56.044Z,98975.72
2022-10-31T18:46:22.672Z,98977.28
2022-10-31T18:48:49.292Z,98982.75
2022-10-31T18:51:18.283Z,98988.03
2022-10-31T18:53:52.619Z,98980.28
2022-10-31T18:56:19.937Z,98977.56
2022-10-31T18:58:46.914Z,98992.56
2022-10-31T19:01:14.764Z,98994.22
2022-10-31T19:03:41.637Z,98984.19
2022-10-31T19:06:12.436Z,98992.28
2022-10-31T19:08:39.726Z,98988.56
2022-10-31T19:11:09.231Z,98988.66
2022-10-31T19:13:36.512Z,98988.22
2022-10-31T19:16:05.318Z,98991.13
2022-10-31T19:18:31.914Z,98996.09
2022-10-31T19:20:58.549Z,99004.97
2022-10-31T19:23:25.204Z,98997.09
2022-10-31T19:25:51.738Z,99002.06
2022-10-31T19:28:18.364Z,98999.34
2022-10-31T19:30:52.863Z,98994.19
2022-10-31T19:33:19.467Z,99003.81
2022-10-31T19:35:46.188Z,98998.66
2022-10-31T19:38:12.866Z,99003.81
2022-10-31T19:40:39.465Z,98991.81
2022-10-31T19:43:06.333Z,98996.38
2022-10-31T19:45:32.898Z,98997.81
2022-10-31T19:47:59.998Z,98991.09
2022-10-31T19:50:28.931Z,98995.41
2022-10-31T19:52:55.550Z,98997.19
2022-10-31T19:55:22.244Z,98999.97
2022-10-31T19:58:01.319Z,98999.53
2022-10-31T20:00:28.892Z,99003.34
2022-10-31T20:02:55.481Z,99002.13
2022-10-31T20:05:22.153Z,99001.69
2022-10-31T20:07:48.740Z,99005.94
2022-10-31T20:10:15.363Z,99006.13
2022-10-31T20:12:41.968Z,99004.66
2022-10-31T20:15:09.369Z,99010.22
2022-10-31T20:17:35.947Z,98989.22
2022-10-31T20:20:08.552Z,99007.53
2022-10-31T20:22:36.498Z,99006.34
2022-10-31T20:25:03.541Z,99013.09
2022-10-31T20:27:30.271Z,99011.44
2022-10-31T20:29:56.902Z,99022.81
2022-10-31T20:32:23.738Z,99029.00
2022-10-31T20:34:50.328Z,99021.53
2022-10-31T20:37:17.072Z,99032.22
2022-10-31T20:39:43.637Z,99028.53
2022-10-31T20:42:10.337Z,99028.34
2022-10-31T20:44:36.940Z,99031.00
2022-10-31T20:47:04.204Z,99028.53
2022-10-31T20:49:30.806Z,99027.91
2022-10-31T20:51:57.544Z,99031.31
2022-10-31T20:54:24.145Z,99030.91
2022-10-31T20:56:50.776Z,99028.72
2022-10-31T20:59:19.368Z,99040.44
2022-10-31T21:01:46.226Z,99047.38
2022-10-31T21:04:12.905Z,99041.84
2022-10-31T21:06:40.056Z,99045.34
2022-10-31T21:09:07.044Z,99045.81
2022-10-31T21:11:33.770Z,99049.31
2022-10-31T21:14:00.655Z,99052.00
2022-10-31T21:16:35.649Z,99051.25
2022-10-31T21:19:04.292Z,99049.06
2022-10-31T21:21:35.063Z,99044.25
2022-10-31T21:24:04.885Z,99047.59
2022-10-31T21:26:34.928Z,99047.59
2022-10-31T21:29:03.163Z,99053.91
2022-10-31T21:31:29.975Z,99048.66
2022-10-31T21:33:56.856Z,99048.34
2022-10-31T21:36:24.073Z,99047.75
2022-10-31T21:38:51.893Z,99048.13
2022-10-31T21:41:19.437Z,99050.41
2022-10-31T21:43:48.615Z,99056.78
2022-10-31T21:46:18.406Z,99053.44
2022-10-31T21:48:46.455Z,99056.97
2022-10-31T21:51:16.522Z,99051.63
2022-10-31T21:54:02.025Z,99056.78
2022-10-31T21:56:29.400Z,99055.03
2022-10-31T21:58:56.276Z,99052.00
2022-10-31T22:01:24.739Z,99056.59
2022-10-31T22:03:51.492Z,99052.16
2022-10-31T22:06:18.275Z,99052.16
2022-10-31T22:08:44.974Z,99062.50
2022-10-31T22:11:14.287Z,99054.22
2022-10-31T22:13:42.958Z,99049.66
2022-10-31T22:16:12.095Z,99049.47
2022-10-31T22:18:39.813Z,99050.63
2022-10-31T22:21:08.434Z,99053.25
2022-10-31T22:23:35.734Z,99043.97
2022-10-31T22:26:07.120Z,99037.25
2022-10-31T22:28:34.394Z,99035.84
2022-10-31T22:31:05.457Z,99028.09
2022-10-31T22:33:32.522Z,99034.38
2022-10-31T22:36:03.884Z,99031.50
2022-10-31T22:38:31.156Z,99031.78
2022-10-31T22:40:58.790Z,99022.38
2022-10-31T22:43:25.520Z,99034.19
2022-10-31T22:45:56.120Z,99044.59
2022-10-31T22:48:22.772Z,99043.31
2022-10-31T22:50:49.323Z,99041.72
2022-10-31T22:53:16.047Z,99040.16
2022-10-31T22:55:42.631Z,99035.94
2022-10-31T22:58:09.214Z,99029.94
2022-10-31T23:00:35.917Z,99039.25
2022-10-31T23:03:02.595Z,99034.19
2022-10-31T23:05:29.126Z,99039.53
2022-10-31T23:07:55.734Z,99037.03
2022-10-31T23:10:22.486Z,99028.91
2022-10-31T23:13:07.750Z,99029.00
2022-10-31T23:15:37.727Z,99027.91
2022-10-31T23:18:06.370Z,99040.91
2022-10-31T23:20:38.352Z,99032.78
2022-10-31T23:23:05.016Z,99031.00
2022-10-31T23:25:50.244Z,99042.31
2022-10-31T23:28:16.944Z,99042.91
2022-10-31T23:30:46.332Z,99042.31
2022-10-31T23:33:12.946Z,99034.13
2022-10-31T23:35:39.475Z,99045.38
2022-10-31T23:38:06.084Z,99052.19
2022-10-31T23:40:32.822Z,99046.00
2022-10-31T23:42:59.438Z,99039.56
2022-10-31T23:45:28.457Z,99036.34
2022-10-31T23:47:55.133Z,99039.03
2022-10-31T23:50:21.708Z,99032.19
2022-10-31T23:52:48.369Z,99036.44
2022-10-31T23:55:15.131Z,99030.63
2022-10-31T23:57:41.958Z,99034.59
